Time;durP1;ratioP1;P1;durP2;ratioP2;P2;SDS_P1;SDS_P2;PMS_P1;PMS_P2;Temp;Humidity;BMP_temperature;BMP_pressure;BME280_temperature;BME280_humidity;BME280_pressure;Samples;Min_cycle;Max_cycle;Signal;HPM_P1;HPM_P2
2022/09/25 00:00:46;;;;;;;1.17;1.17;;;;;;;11.50;59.23;100129.88;5047502;28;20040;-87
2022/09/25 00:03:13;;;;;;;0.68;0.68;;;;;;;11.16;59.21;100078.31;5047059;28;20029;-87
2022/09/25 00:05:40;;;;;;;0.50;0.50;;;;;;;11.18;59.60;100110.00;5067253;28;20039;-86
2022/09/25 00:08:06;;;;;;;0.45;0.45;;;;;;;11.15;59.71;100081.84;5062393;28;20036;-86
2022/09/25 00:10:32;;;;;;;0.65;0.65;;;;;;;11.46;59.59;100097.31;5057696;28;20146;-86
2022/09/25 00:12:58;;;;;;;1.58;1.48;;;;;;;11.51;59.43;100111.38;5051497;28;20906;-86
2022/09/25 00:15:24;;;;;;;;;;;;;;;11.58;59.72;100114.81;5048536;28;20036;-86
2022/09/25 00:17:50;;;;;;;1.70;1.45;;;;;;;11.64;59.48;100097.09;5046631;28;19993;-86
2022/09/25 00:20:16;;;;;;;;;;;;;;;11.85;59.38;100117.97;5047471;28;20028;-86
2022/09/25 00:22:41;;;;;;;0.30;0.30;;;;;;;11.72;59.30;100104.94;5059332;28;20361;-86
2022/09/25 00:25:09;;;;;;;;;;;;;;;11.71;59.36;100119.06;5050849;28;20098;-86
2022/09/25 00:27:35;;;;;;;1.10;1.10;;;;;;;11.72;59.05;100117.28;5047035;28;19952;-86
2022/09/25 00:30:00;;;;;;;;;;;;;;;11.67;59.46;100130.56;5047628;28;20130;-86
2022/09/25 00:32:25;;;;;;;;;;;;;;;11.54;59.33;100124.56;5048492;28;19921;-86
2022/09/25 00:34:51;;;;;;;1.02;0.85;;;;;;;11.32;59.37;100104.56;5046611;28;19920;-86
2022/09/25 00:37:16;;;;;;;;;;;;;;;11.30;60.12;100117.78;5047326;28;20426;-86
2022/09/25 00:39:41;;;;;;;;;;;;;;;10.80;61.87;100127.97;5047196;28;19913;-87
2022/09/25 00:42:11;;;;;;;0.40;0.40;;;;;;;10.57;61.76;100075.41;5053516;28;19986;-86
2022/09/25 00:44:56;;;;;;;0.65;0.65;;;;;;;11.01;61.15;100118.94;5057360;28;20052;-85
2022/09/25 00:47:32;;;;;;;0.60;0.60;;;;;;;10.93;61.14;100116.38;5065038;28;20036;-85
2022/09/25 00:50:00;;;;;;;0.95;0.85;;;;;;;10.86;61.16;100093.59;5066808;28;20041;-86
2022/09/25 00:52:26;;;;;;;2.17;2.08;;;;;;;10.98;61.34;100108.41;5064529;28;20028;-86
2022/09/25 00:54:57;;;;;;;3.92;1.50;;;;;;;10.88;60.54;100078.63;5054592;28;20574;-85
2022/09/25 00:57:25;;;;;;;1.77;1.67;;;;;;;11.06;61.03;100103.06;5046481;28;20065;-86
2022/09/25 00:59:56;;;;;;;2.55;1.20;;;;;;;11.10;60.07;100107.44;5048769;28;20532;-86
2022/09/25 01:02:30;;;;;;;1.30;1.25;;;;;;;11.00;60.19;100087.28;5055990;28;20040;-86
2022/09/25 01:05:00;;;;;;;1.48;1.40;;;;;;;10.96;60.36;100069.75;5058714;28;20095;-86
2022/09/25 01:07:25;;;;;;;0.35;0.35;;;;;;;10.83;61.04;100080.44;5069655;28;20117;-87
2022/09/25 01:09:51;;;;;;;;;;;;;;;10.95;61.47;100107.59;5071241;28;20123;-87
2022/09/25 01:12:16;;;;;;;;;;;;;;;10.84;62.06;100108.56;5061994;28;20392;-86
2022/09/25 01:14:42;;;;;;;;;;;;;;;10.76;62.64;100097.22;5051200;28;19917;-86
2022/09/25 01:17:28;;;;;;;1.23;1.20;;;;;;;10.72;61.19;100050.63;5064153;28;20038;-86
2022/09/25 01:20:11;;;;;;;0.80;0.80;;;;;;;10.89;60.77;100114.69;5070466;28;20051;-86
2022/09/25 01:22:55;;;;;;;1.02;1.02;;;;;;;10.80;61.11;100109.50;5069938;28;20025;-86
2022/09/25 01:25:39;;;;;;;0.60;0.60;;;;;;;10.87;61.18;100105.03;5065267;28;20064;-86
2022/09/25 01:28:32;;;;;;;0.93;0.93;;;;;;;10.87;61.49;100103.25;5050378;28;20025;-86
2022/09/25 01:31:47;;;;;;;1.25;1.15;;;;;;;10.90;61.13;100112.91;5050010;28;20179;-86
2022/09/25 01:34:36;;;;;;;1.08;1.08;;;;;;;10.65;61.70;100083.25;5012373;28;20045;-86
2022/09/25 01:37:18;;;;;;;0.45;0.45;;;;;;;10.95;60.98;100102.31;5049824;28;20517;-86
2022/09/25 01:39:50;;;;;;;1.05;1.05;;;;;;;10.75;61.77;100082.25;5050199;28;20793;-86
2022/09/25 01:42:22;;;;;;;0.50;0.50;;;;;;;10.47;61.38;100039.44;5059046;28;20399;-86
2022/09/25 01:44:56;;;;;;;1.20;1.05;;;;;;;10.67;61.41;100078.81;5068389;28;20032;-86
2022/09/25 01:47:33;;;;;;;0.47;0.47;;;;;;;10.61;62.29;100085.00;5068693;28;20099;-85
2022/09/25 01:50:02;;;;;;;1.30;1.23;;;;;;;10.44;61.78;100071.13;5068216;28;20033;-85
2022/09/25 01:52:34;;;;;;;2.75;2.20;;;;;;;10.40;61.75;100075.53;5067723;28;20162;-86
2022/09/25 01:55:35;;;;;;;2.83;1.42;;;;;;;10.64;61.34;100111.38;5069448;28;20428;-86
2022/09/25 01:58:10;;;;;;;0.60;0.60;;;;;;;10.52;61.47;100107.09;5056100;28;20131;-85
2022/09/25 02:00:41;;;;;;;0.40;0.40;;;;;;;10.32;62.56;100099.31;5069746;28;20028;-86
2022/09/25 02:03:17;;;;;;;1.10;1.08;;;;;;;10.52;62.34;100111.50;5050455;28;20561;-86
2022/09/25 02:05:51;;;;;;;0.52;0.52;;;;;;;10.30;62.09;100073.81;5062458;28;20036;-86
2022/09/25 02:08:21;;;;;;;0.85;0.85;;;;;;;10.26;61.93;100098.50;5054077;28;20037;-86
2022/09/25 02:10:54;;;;;;;1.23;1.13;;;;;;;10.18;63.01;100095.91;5052884;28;20032;-86
2022/09/25 02:13:25;;;;;;;0.90;0.90;;;;;;;10.24;62.42;100108.16;5069634;28;20386;-86
2022/09/25 02:15:55;;;;;;;1.15;0.82;;;;;;;10.22;62.65;100113.44;5054289;28;20454;-86
2022/09/25 02:21:16;;;;;;;0.80;0.80;;;;;;;10.45;62.79;100121.22;5069566;28;20106;-85
2022/09/25 02:24:11;;;;;;;0.63;0.63;;;;;;;10.46;62.40;100119.47;5069593;28;20097;-86
2022/09/25 02:26:37;;;;;;;;;;;;;;;10.48;61.80;100115.91;5049581;28;20048;-86
2022/09/25 02:29:03;;;;;;;0.65;0.65;;;;;;;10.39;62.82;100131.81;5049208;28;19971;-86
2022/09/25 02:31:56;;;;;;;0.50;0.50;;;;;;;10.38;62.25;100109.84;5051727;28;20473;-86
2022/09/25 02:34:22;;;;;;;0.73;0.73;;;;;;;10.22;62.08;100105.53;5049661;28;20151;-86
2022/09/25 02:36:48;;;;;;;0.52;0.52;;;;;;;10.17;62.48;100118.75;5057548;28;20057;-87
2022/09/25 02:39:15;;;;;;;;;;;;;;;10.16;63.03;100131.94;5049114;28;20048;-86
2022/09/25 02:42:05;;;;;;;0.70;0.70;;;;;;;10.25;62.46;100128.38;5047680;28;19912;-86
2022/09/25 02:45:08;;;;;;;5.05;1.13;;;;;;;10.01;62.82;100125.00;5049490;28;20020;-86
2022/09/25 02:47:45;;;;;;;0.80;0.80;;;;;;;10.11;62.56;100096.81;5064384;28;20509;-86
2022/09/25 02:50:11;;;;;;;6.53;1.98;;;;;;;10.03;63.27;100123.22;5066578;28;20040;-86
2022/09/25 02:52:36;;;;;;;;;;;;;;;9.98;63.02;100111.84;5048984;28;20033;-86
2022/09/25 02:55:05;;;;;;;1.13;1.08;;;;;;;9.86;63.75;100118.06;5052338;28;19975;-86
2022/09/25 02:57:54;;;;;;;6.85;2.78;;;;;;;10.07;63.43;100126.72;5066976;28;20064;-85
2022/09/25 03:00:22;;;;;;;0.65;0.65;;;;;;;9.71;63.21;100092.66;5068401;28;20051;-85
2022/09/25 03:02:53;;;;;;;0.88;0.88;;;;;;;9.58;63.46;100109.41;5068153;28;20028;-85
2022/09/25 03:05:20;;;;;;;2.55;2.35;;;;;;;9.35;61.92;100091.94;5067131;28;20472;-86
2022/09/25 03:10:33;;;;;;;3.60;1.40;;;;;;;9.64;62.65;100105.00;5067712;28;20567;-85
2022/09/25 03:13:15;;;;;;;1.00;1.00;;;;;;;9.53;62.86;100133.13;5067737;28;20036;-85
2022/09/25 03:15:45;;;;;;;3.03;2.80;;;;;;;9.71;62.60;100121.63;5056664;28;20501;-85
2022/09/25 03:18:13;;;;;;;1.85;1.75;;;;;;;9.78;62.87;100122.50;5067930;28;20493;-85
2022/09/25 03:20:39;;;;;;;0.60;0.60;;;;;;;9.22;62.86;100048.09;5065643;28;20512;-85
2022/09/25 03:23:04;;;;;;;0.70;0.70;;;;;;;9.64;63.18;100101.50;5067810;28;20032;-86
2022/09/25 03:25:30;;;;;;;;;;;;;;;9.66;63.06;100140.09;5056487;28;20025;-85
2022/09/25 03:27:55;;;;;;;2.80;2.58;;;;;;;9.62;63.00;100140.09;5067734;28;19969;-86
2022/09/25 03:30:20;;;;;;;;;;;;;;;9.55;62.90;100143.66;5068242;28;20422;-87
2022/09/25 03:32:46;;;;;;;3.08;1.63;;;;;;;9.53;63.19;100129.59;5067579;28;20445;-85
2022/09/25 03:35:11;;;;;;;;;;;;;;;9.39;63.46;100145.44;5063766;28;20056;-85
2022/09/25 03:37:37;;;;;;;0.50;0.50;;;;;;;9.63;62.78;100131.34;5051077;28;19963;-85
2022/09/25 03:40:02;;;;;;;;;;;;;;;9.53;63.05;100129.59;5067800;28;20772;-85
2022/09/25 03:42:28;;;;;;;;;;;;;;;9.51;63.29;100129.63;5068386;28;19928;-85
2022/09/25 03:44:53;;;;;;;;;;;;;;;9.25;63.95;100137.59;5068467;28;19985;-84
2022/09/25 03:47:18;;;;;;;0.60;0.60;;;;;;;9.13;64.79;100133.25;5067064;28;19920;-83
2022/09/25 03:49:44;;;;;;;;;;;;;;;9.28;64.35;100137.59;5048052;28;20033;-85
2022/09/25 03:52:11;;;;;;;0.60;0.60;;;;;;;8.83;65.29;100106.09;5047426;28;19920;-85
2022/09/25 03:54:37;;;;;;;0.50;0.50;;;;;;;8.78;65.26;100082.44;5059927;28;20875;-86
2022/09/25 03:57:02;;;;;;;;;;;;;;;9.13;65.13;100118.31;5067634;28;20041;-85
2022/09/25 03:59:28;;;;;;;1.25;1.25;;;;;;;9.14;65.21;100106.94;5050067;28;19943;-85
2022/09/25 04:01:53;;;;;;;;;;;;;;;9.21;64.91;100102.53;5052328;28;20029;-85
2022/09/25 04:04:19;;;;;;;1.25;1.25;;;;;;;9.08;64.92;100088.53;5067512;28;20634;-86
2022/09/25 04:06:44;;;;;;;;;;;;;;;9.26;65.49;100108.63;5050607;28;20037;-84
2022/09/25 04:09:10;;;;;;;1.10;1.10;;;;;;;9.46;64.73;100116.47;5049063;28;19927;-86
2022/09/25 04:11:36;;;;;;;;;;;;;;;9.31;64.80;100122.69;5065362;28;20040;-86
2022/09/25 04:14:03;;;;;;;1.40;1.40;;;;;;;9.28;64.77;100122.69;5062681;28;20008;-84
2022/09/25 04:16:29;;;;;;;0.73;0.73;;;;;;;9.19;64.72;100112.19;5047142;28;20033;-85
2022/09/25 04:18:54;;;;;;;;;;;;;;;9.44;64.85;100125.28;5048393;28;20032;-85
2022/09/25 04:21:19;;;;;;;2.53;2.30;;;;;;;9.33;64.89;100133.22;5047085;28;19913;-85
2022/09/25 04:26:30;;;;;;;1.67;1.58;;;;;;;9.06;64.94;100111.31;5053281;28;19935;-85
2022/09/25 04:28:55;;;;;;;8.85;3.00;;;;;;;9.02;65.32;100103.44;5066746;28;20038;-85
2022/09/25 04:31:20;;;;;;;;;;;;;;;9.17;65.49;100132.34;5067345;28;20028;-84
2022/09/25 04:33:46;;;;;;;1.13;1.13;;;;;;;9.28;65.71;100125.31;5055999;28;20325;-84
2022/09/25 04:36:13;;;;;;;1.88;1.75;;;;;;;9.20;65.30;100102.53;5046934;28;20033;-85
2022/09/25 04:38:38;;;;;;;0.68;0.68;;;;;;;9.08;65.53;100093.78;5058663;28;20083;-85
2022/09/25 04:41:04;;;;;;;;;;;;;;;9.24;66.00;100125.34;5063702;28;20497;-86
2022/09/25 04:43:31;;;;;;;;;;;;;;;9.11;65.92;100140.25;5065573;28;19938;-86
2022/09/25 04:46:07;;;;;;;0.60;0.60;;;;;;;9.15;66.37;100120.97;5054281;28;19916;-84
2022/09/25 04:48:34;;;;;;;0.68;0.68;;;;;;;9.33;66.56;100127.94;5058711;28;20055;-85
2022/09/25 04:51:00;;;;;;;0.50;0.50;;;;;;;9.29;66.45;100116.53;5061394;28;20078;-86
2022/09/25 04:53:26;;;;;;;;;;;;;;;9.41;66.86;100120.88;5061157;28;20569;-84
2022/09/25 04:55:54;;;;;;;0.75;0.75;;;;;;;9.35;65.40;100104.25;5053477;28;20309;-86
2022/09/25 04:58:20;;;;;;;1.27;1.05;;;;;;;9.28;66.98;100116.53;5066511;28;20490;-87
2022/09/25 05:00:45;;;;;;;5.30;2.25;;;;;;;9.61;65.31;100120.81;5065068;28;20517;-85
2022/09/25 05:03:11;;;;;;;;;;;;;;;9.80;65.62;100134.75;5067241;28;20032;-85
2022/09/25 05:05:36;;;;;;;;;;;;;;;9.85;64.95;100142.66;5063799;28;19919;-84
2022/09/25 05:08:03;;;;;;;1.38;1.38;;;;;;;9.98;64.65;100148.75;5046913;28;19919;-84
2022/09/25 05:10:31;;;;;;;0.60;0.60;;;;;;;10.29;63.97;100149.44;5046898;28;20110;-85
2022/09/25 05:12:58;;;;;;;1.45;1.38;;;;;;;10.10;64.68;100130.22;5048394;28;20692;-86
2022/09/25 05:15:24;;;;;;;0.93;0.93;;;;;;;10.54;63.63;100167.75;5066105;28;20120;-85
2022/09/25 05:17:58;;;;;;;0.90;0.90;;;;;;;10.66;63.24;100157.09;5063222;28;20054;-85
2022/09/25 05:20:24;;;;;;;1.30;1.25;;;;;;;10.76;63.24;100152.63;5044960;28;20483;-84
2022/09/25 05:22:52;;;;;;;;;;;;;;;10.75;63.27;100167.59;5050216;28;20071;-85
2022/09/25 05:25:18;;;;;;;0.85;0.73;;;;;;;10.61;63.65;100145.69;5066431;28;19920;-85
2022/09/25 05:27:44;;;;;;;;;;;;;;;10.88;62.08;100163.06;5066250;28;20035;-84
2022/09/25 05:30:10;;;;;;;0.95;0.95;;;;;;;10.94;62.19;100175.34;5066328;28;19913;-84
2022/09/25 05:32:35;;;;;;;;;;;;;;;11.15;62.38;100174.25;5066522;28;20051;-85
2022/09/25 05:35:03;;;;;;;0.90;0.90;;;;;;;11.19;61.24;100138.16;5066639;28;19912;-85
2022/09/25 05:37:28;;;;;;;0.60;0.60;;;;;;;11.51;61.30;100169.50;5065645;28;20102;-84
2022/09/25 05:39:53;;;;;;;;;;;;;;;11.53;60.45;100187.97;5047762;28;20057;-84
2022/09/25 05:42:19;;;;;;;;;;;;;;;11.67;60.78;100180.75;5055135;28;19920;-84
2022/09/25 05:44:44;;;;;;;3.03;2.67;;;;;;;11.99;58.80;100161.88;5061005;28;19967;-84
2022/09/25 05:47:10;;;;;;;;;;;;;;;12.31;58.86;100184.38;5069839;28;20560;-84
2022/09/25 05:49:35;;;;;;;1.33;1.30;;;;;;;12.23;58.21;100141.28;5070145;28;20437;-85
2022/09/25 05:52:00;;;;;;;;;;;;;;;12.44;57.98;100187.72;5070502;28;20041;-84
2022/09/25 05:54:26;;;;;;;;;;;;;;;12.42;58.21;100192.16;5070052;28;19999;-85
2022/09/25 05:56:51;;;;;;;3.40;1.05;;;;;;;12.40;58.21;100191.28;5069575;28;20435;-84
2022/09/25 05:59:16;;;;;;;;;;;;;;;12.36;57.19;100197.53;5070073;28;20128;-84
2022/09/25 06:01:42;;;;;;;;;;;;;;;13.05;56.69;100187.63;5069805;28;20377;-85
2022/09/25 06:04:08;;;;;;;0.50;0.50;;;;;;;13.13;55.15;100163.63;5069670;28;19917;-86
2022/09/25 06:06:33;;;;;;;;;;;;;;;13.30;55.63;100180.13;5070073;28;20112;-89
2022/09/25 06:08:58;;;;;;;0.30;0.30;;;;;;;13.87;55.21;100168.44;5062660;28;19969;-85
2022/09/25 06:11:24;;;;;;;;;;;;;;;14.19;53.95;100164.19;5069416;28;20047;-85
2022/09/25 06:13:50;;;;;;;;;;;;;;;14.62;53.99;100165.03;5069447;28;19909;-87
2022/09/25 06:16:18;;;;;;;1.45;1.27;;;;;;;14.95;51.74;100127.88;5065954;28;20014;-87
2022/09/25 06:18:43;;;;;;;1.05;1.00;;;;;;;15.22;51.66;100145.75;5068955;28;20399;-89
2022/09/25 06:21:09;;;;;;;;;;;;;;;15.02;49.97;100154.25;5062101;28;20529;-87
2022/09/25 06:23:34;;;;;;;0.70;0.70;;;;;;;14.85;50.68;100167.09;5048823;28;19963;-86
2022/09/25 06:26:03;;;;;;;;;;;;;;;14.79;51.94;100170.78;5049394;28;20033;-85
2022/09/25 06:28:29;;;;;;;0.73;0.73;;;;;;;15.15;51.12;100164.56;5049028;28;19959;-87
2022/09/25 06:30:58;;;;;;;1.38;1.33;;;;;;;15.21;49.00;100138.72;5063832;28;20035;-86
2022/09/25 06:33:24;;;;;;;0.28;0.28;;;;;;;14.97;49.41;100166.78;5068486;28;20123;-85
2022/09/25 06:35:49;;;;;;;1.35;1.30;;;;;;;14.91;50.02;100136.88;5064942;28;20119;-85
2022/09/25 06:38:16;;;;;;;0.60;0.60;;;;;;;15.38;48.66;100129.38;5052992;28;20057;-86
2022/09/25 06:40:42;;;;;;;0.65;0.65;;;;;;;16.16;48.09;100150.22;5049664;28;20047;-83
2022/09/25 06:43:13;;;;;;;5.57;0.77;;;;;;;16.42;47.49;100154.72;5064173;28;20051;-83
2022/09/25 06:45:39;;;;;;;0.47;0.47;;;;;;;16.67;45.87;100140.59;5068843;28;20499;-83
2022/09/25 06:48:10;;;;;;;0.30;0.30;;;;;;;17.15;45.00;100113.22;5069142;28;20047;-83
2022/09/25 06:50:40;;;;;;;0.20;0.20;;;;;;;17.10;43.73;100133.84;5068969;28;20066;-85
2022/09/25 06:53:05;;;;;;;0.20;0.20;;;;;;;16.79;43.40;100092.25;5054137;28;20041;-84
2022/09/25 06:55:31;;;;;;;0.60;0.60;;;;;;;17.23;43.40;100130.75;5049691;28;20248;-83
2022/09/25 06:57:57;;;;;;;0.35;0.35;;;;;;;17.56;43.43;100101.09;5048162;28;20033;-85
2022/09/25 07:00:23;;;;;;;4.57;2.03;;;;;;;17.89;41.61;100139.88;5047400;28;20496;-85
2022/09/25 07:05:33;;;;;;;0.65;0.52;;;;;;;18.36;40.93;100117.56;5048379;28;20047;-85
2022/09/25 07:07:59;;;;;;;0.20;0.20;;;;;;;18.05;40.14;100077.91;5047839;28;20037;-85
2022/09/25 07:10:24;;;;;;;0.55;0.40;;;;;;;18.35;40.12;100123.88;5048309;28;20033;-85
2022/09/25 07:12:50;;;;;;;0.93;0.52;;;;;;;18.29;41.16;100110.78;5048254;28;20037;-84
2022/09/25 07:15:15;;;;;;;0.47;0.47;;;;;;;18.67;39.58;100094.09;5057105;28;20036;-87
2022/09/25 07:17:42;;;;;;;0.35;0.35;;;;;;;18.72;38.47;100090.28;5067884;28;20036;-85
2022/09/25 07:20:11;;;;;;;0.20;0.20;;;;;;;19.06;39.81;100133.44;5068210;28;20059;-87
2022/09/25 07:22:37;;;;;;;0.52;0.52;;;;;;;19.13;39.64;100101.00;5066016;28;20403;-85
2022/09/25 07:25:02;;;;;;;0.10;0.10;;;;;;;19.51;38.14;100110.97;5068075;28;20036;-85
2022/09/25 07:27:29;;;;;;;0.22;0.22;;;;;;;19.11;38.40;100108.25;5067824;28;20033;-86
2022/09/25 07:29:55;;;;;;;0.75;0.75;;;;;;;18.79;40.36;100134.50;5068421;28;20054;-86
2022/09/25 07:32:20;;;;;;;0.90;0.90;;;;;;;18.77;40.36;100131.03;5068014;28;20036;-85
2022/09/25 07:34:48;;;;;;;1.27;1.20;;;;;;;18.56;41.45;100131.94;5067210;28;20024;-87
2022/09/25 07:37:14;;;;;;;0.25;0.25;;;;;;;18.98;41.44;100130.22;5067545;28;20106;-85
2022/09/25 07:39:40;;;;;;;2.33;1.92;;;;;;;19.12;39.61;100119.78;5066249;28;20033;-85
2022/09/25 07:42:06;;;;;;;0.82;0.82;;;;;;;18.77;39.57;100127.50;5068173;28;20471;-85
2022/09/25 07:44:31;;;;;;;1.05;0.77;;;;;;;18.87;39.59;100141.38;5066709;28;20032;-86
2022/09/25 07:46:59;;;;;;;0.68;0.68;;;;;;;18.79;39.99;100122.97;5065959;28;20102;-87
2022/09/25 07:49:25;;;;;;;0.95;0.95;;;;;;;18.75;40.75;100108.88;5067436;28;20025;-89
2022/09/25 07:51:51;;;;;;;0.30;0.30;;;;;;;18.96;39.47;100095.53;5067685;28;20032;-85
2022/09/25 07:54:17;;;;;;;4.07;1.23;;;;;;;19.21;39.24;100119.41;5067600;28;20032;-89
2022/09/25 07:56:42;;;;;;;2.38;1.42;;;;;;;19.00;39.94;100083.78;5067321;28;20028;-85
2022/09/25 07:59:08;;;;;;;0.20;0.20;;;;;;;19.25;39.56;100114.81;5065688;28;20044;-87
2022/09/25 08:01:33;;;;;;;0.45;0.45;;;;;;;19.32;39.57;100097.53;5066178;28;20041;-86
2022/09/25 08:03:58;;;;;;;0.75;0.60;;;;;;;19.32;39.21;100094.84;5067236;28;20039;-86
2022/09/25 08:06:24;;;;;;;1.30;0.95;;;;;;;18.98;38.57;100090.13;5067195;28;20032;-86
2022/09/25 08:08:49;;;;;;;1.02;1.00;;;;;;;19.77;38.04;100066.09;5065248;28;20067;-86
2022/09/25 08:11:16;;;;;;;9.75;2.83;;;;;;;20.33;37.28;100104.47;5066999;28;20059;-87
2022/09/25 08:13:43;;;;;;;1.17;1.10;;;;;;;20.49;35.62;100084.00;5067790;28;20032;-91
2022/09/25 08:16:13;;;;;;;0.77;0.77;;;;;;;20.52;36.05;100083.00;5066382;28;20032;-86
2022/09/25 08:18:40;;;;;;;0.65;0.65;;;;;;;21.05;35.13;100089.25;5064964;28;20044;-87
2022/09/25 08:21:07;;;;;;;0.20;0.20;;;;;;;20.61;34.95;100092.41;5066330;28;20576;-88
2022/09/25 08:23:32;;;;;;;1.65;0.95;;;;;;;20.43;37.07;100083.44;5067312;28;20037;-88
2022/09/25 08:25:58;;;;;;;2.65;1.38;;;;;;;20.43;35.40;100030.72;5068436;28;20032;-87
2022/09/25 08:28:24;;;;;;;3.53;0.75;;;;;;;20.73;35.38;100065.84;5068013;28;20036;-87
2022/09/25 08:30:50;;;;;;;0.20;0.20;;;;;;;21.27;34.86;100089.88;5067707;28;20029;-90
2022/09/25 08:33:16;;;;;;;0.35;0.35;;;;;;;21.30;34.40;100067.34;5067795;28;20041;-88
2022/09/25 08:35:42;;;;;;;0.68;0.68;;;;;;;21.43;35.07;100068.44;5068031;28;20038;-85
2022/09/25 08:38:10;;;;;;;0.80;0.80;;;;;;;21.82;34.04;100083.31;5054535;28;20422;-87
2022/09/25 08:40:55;;;;;;;0.20;0.20;;;;;;;21.57;36.00;100061.50;5064539;28;20490;-87
2022/09/25 08:43:24;;;;;;;0.55;0.55;;;;;;;21.93;33.13;100052.34;5061719;28;20032;-88
2022/09/25 08:49:01;;;;;;;7.47;1.55;;;;;;;21.40;34.74;100044.47;5056656;28;20051;-88
2022/09/25 08:51:47;;;;;;;0.55;0.55;;;;;;;21.12;36.58;100071.91;5056046;28;20119;-88
2022/09/25 08:54:24;;;;;;;0.55;0.55;;;;;;;20.32;35.08;100049.16;5064750;28;20060;-88
2022/09/25 08:56:52;;;;;;;2.60;1.25;;;;;;;20.41;38.36;100035.31;5054427;28;20028;-87
2022/09/25 08:59:27;;;;;;;0.40;0.40;;;;;;;20.49;36.23;100059.03;5061589;28;20102;-88
2022/09/25 09:02:00;;;;;;;0.47;0.47;;;;;;;20.76;35.20;100070.19;5066243;28;20036;-87
2022/09/25 09:04:30;;;;;;;0.63;0.60;;;;;;;21.08;34.93;100022.91;5066738;28;20072;-86
2022/09/25 09:07:03;;;;;;;0.73;0.73;;;;;;;21.34;34.23;100042.09;5067359;28;20033;-90
2022/09/25 09:09:46;;;;;;;5.22;3.67;;;;;;;21.08;35.72;100043.50;5066419;28;20128;-87
2022/09/25 09:12:18;;;;;;;0.20;0.20;;;;;;;21.25;34.95;100050.66;5060246;28;20571;-87
2022/09/25 09:14:48;;;;;;;0.82;0.82;;;;;;;21.01;34.83;100028.72;5055054;28;20411;-89
2022/09/25 09:17:16;;;;;;;0.98;0.95;;;;;;;21.00;35.21;100013.56;5061510;28;20106;-92
2022/09/25 09:19:46;;;;;;;0.50;0.50;;;;;;;21.26;34.29;100044.34;5067418;28;20458;-91
2022/09/25 09:22:14;;;;;;;2.17;1.33;;;;;;;20.96;34.00;99994.09;5072098;28;20036;-92
2022/09/25 09:25:05;;;;;;;1.77;1.63;;;;;;;21.36;34.79;100064.34;5072975;28;20099;-90
2022/09/25 09:27:51;;;;;;;0.70;0.70;;;;;;;21.21;34.30;100055.31;5069217;28;20405;-89
2022/09/25 09:30:28;;;;;;;5.18;0.82;;;;;;;21.20;34.77;100040.16;5069600;28;20087;-90
2022/09/25 09:33:12;;;;;;;3.90;1.65;;;;;;;21.19;34.21;100049.16;5069818;28;20072;-87
2022/09/25 09:36:07;;;;;;;0.57;0.57;;;;;;;20.74;34.50;99954.13;5062405;28;20064;-87
2022/09/25 09:38:47;;;;;;;1.35;0.90;;;;;;;21.45;34.30;100038.84;5052320;28;20080;-86
2022/09/25 09:41:21;;;;;;;0.20;0.20;;;;;;;21.25;34.35;100011.28;5061447;28;20126;-87
2022/09/25 09:43:53;;;;;;;2.73;2.23;;;;;;;21.01;34.58;99983.97;5073485;28;20056;-89
2022/09/25 09:46:43;;;;;;;0.40;0.40;;;;;;;21.40;35.25;100009.56;5073163;28;20029;-90
2022/09/25 09:49:42;;;;;;;0.85;0.77;;;;;;;21.47;35.85;99996.66;5073227;28;20028;-89
2022/09/25 09:52:29;;;;;;;4.68;0.75;;;;;;;21.63;36.10;100005.66;5073273;28;20578;-87
2022/09/25 09:55:01;;;;;;;0.35;0.35;;;;;;;21.45;34.21;99988.72;5072582;28;20032;-89
2022/09/25 09:57:30;;;;;;;0.40;0.40;;;;;;;21.13;34.89;99949.38;5072569;28;20048;-87
2022/09/25 10:00:14;;;;;;;0.17;0.17;;;;;;;21.28;34.27;99978.91;5071410;28;20033;-87
2022/09/25 10:02:44;;;;;;;0.40;0.40;;;;;;;21.22;34.29;99959.63;5072885;28;20036;-87
2022/09/25 10:05:36;;;;;;;0.73;0.73;;;;;;;21.22;33.68;99992.66;5071824;28;20032;-89
2022/09/25 10:08:02;;;;;;;0.30;0.30;;;;;;;20.85;34.55;99930.31;5070890;28;20040;-88
2022/09/25 10:10:37;;;;;;;1.23;1.13;;;;;;;21.43;33.78;99981.72;5072113;28;20026;-88
2022/09/25 10:13:12;;;;;;;0.38;0.38;;;;;;;21.47;33.50;99967.16;5071102;28;20040;-88
2022/09/25 10:15:53;;;;;;;1.13;0.50;;;;;;;21.76;34.00;99978.97;5072369;28;20071;-88
2022/09/25 10:18:21;;;;;;;0.38;0.30;;;;;;;21.89;32.63;99980.94;5073147;28;20029;-86
2022/09/25 10:21:06;;;;;;;0.20;0.20;;;;;;;21.98;32.95;99973.25;5074064;28;20090;-86
2022/09/25 10:23:49;;;;;;;0.45;0.40;;;;;;;22.21;33.26;99968.31;5073999;28;20115;-87
2022/09/25 10:26:32;;;;;;;0.82;0.82;;;;;;;22.13;32.94;99952.66;5073404;28;20033;-87
2022/09/25 10:29:01;;;;;;;0.77;0.65;;;;;;;21.94;32.82;99960.94;5073541;28;20040;-89
2022/09/25 10:34:50;;;;;;;0.43;0.40;;;;;;;21.67;32.81;99912.38;5075066;28;20059;-93
2022/09/25 10:37:20;;;;;;;0.75;0.70;;;;;;;21.80;32.92;99896.44;5076347;28;20546;-91
2022/09/25 10:40:30;;;;;;;1.08;0.98;;;;;;;22.07;33.50;99947.66;5075309;28;20032;-95
2022/09/25 10:43:23;;;;;;;1.23;0.52;;;;;;;22.39;33.17;99942.22;5064718;28;20123;-92
2022/09/25 10:46:12;;;;;;;0.38;0.38;;;;;;;21.89;33.48;99916.50;5074984;28;20052;-88
2022/09/25 10:51:23;;;;;;;1.15;1.08;;;;;;;22.09;33.89;99932.31;5072466;28;20047;-92
2022/09/25 10:53:51;;;;;;;0.32;0.32;;;;;;;22.26;33.87;99935.81;5071945;28;20078;-90
2022/09/25 10:56:31;;;;;;;0.38;0.38;;;;;;;22.24;34.14;99924.31;5072026;28;20032;-90
2022/09/25 10:59:00;;;;;;;0.60;0.60;;;;;;;22.61;33.60;99919.41;5070505;28;20036;-91
2022/09/25 11:01:38;;;;;;;2.88;2.42;;;;;;;22.30;33.85;99908.69;5071985;28;20029;-90
2022/09/25 11:04:23;;;;;;;3.90;3.60;;;;;;;22.18;34.77;99882.53;5071229;28;20044;-91
2022/09/25 11:06:53;;;;;;;;;;;;;;;22.47;35.08;99913.06;5072022;28;20482;-91
2022/09/25 11:09:25;;;;;;;0.75;0.75;;;;;;;22.37;34.95;99911.91;5069802;28;19917;-92
2022/09/25 11:12:02;;;;;;;1.77;0.95;;;;;;;22.06;35.40;99862.69;5070606;28;20043;-87
2022/09/25 11:14:35;;;;;;;1.85;1.40;;;;;;;22.44;34.86;99891.72;5070946;28;20072;-91
2022/09/25 11:17:08;;;;;;;0.40;0.40;;;;;;;22.76;34.76;99885.34;5071620;28;20083;-90
2022/09/25 11:19:37;;;;;;;1.77;1.13;;;;;;;22.72;33.69;99887.34;5071521;28;20120;-88
2022/09/25 11:22:33;;;;;;;1.45;1.23;;;;;;;22.45;35.14;99853.16;5071365;28;20165;-88
2022/09/25 11:25:32;;;;;;;0.43;0.43;;;;;;;22.92;34.13;99869.94;5071508;28;20028;-88
2022/09/25 11:28:22;;;;;;;1.13;1.10;;;;;;;23.17;34.13;99858.53;5071922;28;20029;-86
2022/09/25 11:31:16;;;;;;;0.57;0.57;;;;;;;23.43;34.35;99869.41;5070716;28;20037;-89
2022/09/25 11:34:22;;;;;;;0.85;0.85;;;;;;;23.42;34.37;99875.78;4991654;28;20066;-89
2022/09/25 11:37:38;;;;;;;1.65;1.55;;;;;;;23.38;34.58;99872.41;4990931;28;20050;-89
2022/09/25 11:43:08;;;;;;;1.23;1.20;;;;;;;23.62;33.51;99854.72;5071022;28;20512;-90
2022/09/25 11:46:01;;;;;;;0.20;0.20;;;;;;;23.77;34.03;99859.97;5071477;28;20024;-89
2022/09/25 11:49:02;;;;;;;0.45;0.45;;;;;;;23.95;33.46;99847.09;5057663;28;20064;-92
2022/09/25 11:51:46;;;;;;;0.75;0.75;;;;;;;23.28;33.79;99860.53;5049476;28;20079;-88
2022/09/25 11:58:06;;;;;;;0.30;0.30;;;;;;;23.89;34.56;99844.81;5055662;28;20414;-90
2022/09/25 12:00:48;;;;;;;0.35;0.35;;;;;;;23.72;34.38;99810.91;5058742;28;20081;-91
2022/09/25 12:03:13;;;;;;;0.30;0.30;;;;;;;24.31;32.41;99840.16;5053798;28;20030;-90
2022/09/25 12:08:49;;;;;;;0.20;0.20;;;;;;;23.88;32.96;99820.69;5060178;28;20067;-93
2022/09/25 12:11:42;;;;;;;0.38;0.38;;;;;;;23.57;34.27;99795.78;5070211;28;20625;-90
2022/09/25 12:14:10;;;;;;;1.45;1.17;;;;;;;23.63;34.03;99832.22;5069016;28;20072;-92
2022/09/25 12:16:45;;;;;;;1.20;1.02;;;;;;;23.85;33.67;99837.03;5071100;28;20032;-93
2022/09/25 12:19:57;;;;;;;0.17;0.17;;;;;;;23.74;33.63;99786.56;5078498;28;20037;-92
2022/09/25 12:22:42;;;;;;;0.30;0.30;;;;;;;24.04;33.11;99804.34;5066506;28;20137;-90
2022/09/25 12:25:20;;;;;;;;;;;;;;;24.16;34.55;99808.00;5065978;28;20066;-88
2022/09/25 12:27:57;;;;;;;0.05;0.05;;;;;;;24.25;33.80;99773.19;5070715;28;20297;-89
2022/09/25 12:30:32;;;;;;;0.25;0.25;;;;;;;24.54;33.46;99805.28;5073340;28;20039;-89